sensor_id;sensor_type;location;lat;lon;timestamp;pressure;altitude;pressure_sealevel;temperature;humidity
80627;BME280;69982;51.758;5.784;2024-02-21T00:01:23;102212.52;;;9.72;78.29
80627;BME280;69982;51.758;5.784;2024-02-21T00:03:50;102204.88;;;9.73;78.22
80627;BME280;69982;51.758;5.784;2024-02-21T00:06:16;102207.58;;;9.76;78.26
80627;BME280;69982;51.758;5.784;2024-02-21T00:08:43;102204.91;;;9.75;78.25
80627;BME280;69982;51.758;5.784;2024-02-21T00:11:10;102208.92;;;9.77;78.30
80627;BME280;69982;51.758;5.784;2024-02-21T00:13:36;102201.08;;;9.78;78.38
80627;BME280;69982;51.758;5.784;2024-02-21T00:16:03;102195.96;;;9.76;78.34
80627;BME280;69982;51.758;5.784;2024-02-21T00:18:30;102193.00;;;9.74;78.32
80627;BME280;69982;51.758;5.784;2024-02-21T00:20:56;102183.73;;;9.75;78.32
80627;BME280;69982;51.758;5.784;2024-02-21T00:23:23;102185.45;;;9.76;78.27
80627;BME280;69982;51.758;5.784;2024-02-21T00:25:53;102185.33;;;9.78;78.18
80627;BME280;69982;51.758;5.784;2024-02-21T00:28:28;102181.77;;;9.79;78.32
80627;BME280;69982;51.758;5.784;2024-02-21T00:31:00;102176.92;;;9.79;78.37
80627;BME280;69982;51.758;5.784;2024-02-21T00:33:31;102174.84;;;9.78;78.29
80627;BME280;69982;51.758;5.784;2024-02-21T00:36:03;102170.69;;;9.76;78.28
80627;BME280;69982;51.758;5.784;2024-02-21T00:38:35;102164.58;;;9.73;78.31
80627;BME280;69982;51.758;5.784;2024-02-21T00:41:02;102157.99;;;9.74;78.36
80627;BME280;69982;51.758;5.784;2024-02-21T00:43:47;102154.90;;;9.76;78.38
80627;BME280;69982;51.758;5.784;2024-02-21T00:46:19;102152.70;;;9.79;78.46
80627;BME280;69982;51.758;5.784;2024-02-21T00:48:47;102146.00;;;9.79;78.36
80627;BME280;69982;51.758;5.784;2024-02-21T00:51:27;102134.05;;;9.77;78.40
80627;BME280;69982;51.758;5.784;2024-02-21T00:54:13;102125.38;;;9.72;78.30
80627;BME280;69982;51.758;5.784;2024-02-21T00:56:43;102124.38;;;9.69;78.39
80627;BME280;69982;51.758;5.784;2024-02-21T00:59:15;102124.17;;;9.69;78.41
80627;BME280;69982;51.758;5.784;2024-02-21T01:01:47;102118.66;;;9.68;78.34
80627;BME280;69982;51.758;5.784;2024-02-21T01:04:18;102115.77;;;9.68;78.38
80627;BME280;69982;51.758;5.784;2024-02-21T01:06:53;102118.00;;;9.67;78.37
80627;BME280;69982;51.758;5.784;2024-02-21T01:09:38;102122.98;;;9.66;78.30
80627;BME280;69982;51.758;5.784;2024-02-21T01:12:06;102131.67;;;9.64;78.36
80627;BME280;69982;51.758;5.784;2024-02-21T01:14:41;102136.77;;;9.61;78.45
80627;BME280;69982;51.758;5.784;2024-02-21T01:17:10;102136.59;;;9.59;78.47
80627;BME280;69982;51.758;5.784;2024-02-21T01:19:39;102138.70;;;9.60;78.45
80627;BME280;69982;51.758;5.784;2024-02-21T01:22:09;102138.85;;;9.60;78.51
80627;BME280;69982;51.758;5.784;2024-02-21T01:24:38;102132.40;;;9.60;78.54
80627;BME280;69982;51.758;5.784;2024-02-21T01:27:10;102131.52;;;9.59;78.60
80627;BME280;69982;51.758;5.784;2024-02-21T01:29:37;102122.91;;;9.59;78.57
80627;BME280;69982;51.758;5.784;2024-02-21T01:32:10;102115.22;;;9.58;78.53
80627;BME280;69982;51.758;5.784;2024-02-21T01:34:41;102104.43;;;9.55;78.61
80627;BME280;69982;51.758;5.784;2024-02-21T01:37:28;102100.35;;;9.54;78.58
80627;BME280;69982;51.758;5.784;2024-02-21T01:40:03;102092.92;;;9.52;78.58
80627;BME280;69982;51.758;5.784;2024-02-21T01:42:33;102088.81;;;9.51;78.53
80627;BME280;69982;51.758;5.784;2024-02-21T01:45:10;102088.08;;;9.52;78.62
80627;BME280;69982;51.758;5.784;2024-02-21T01:47:50;102089.61;;;9.51;78.69
80627;BME280;69982;51.758;5.784;2024-02-21T01:50:38;102080.23;;;9.50;78.55
80627;BME280;69982;51.758;5.784;2024-02-21T01:53:10;102080.52;;;9.49;78.72
80627;BME280;69982;51.758;5.784;2024-02-21T01:55:47;102081.51;;;9.48;78.64
80627;BME280;69982;51.758;5.784;2024-02-21T01:58:18;102083.30;;;9.50;78.68
80627;BME280;69982;51.758;5.784;2024-02-21T02:00:48;102075.41;;;9.52;78.50
80627;BME280;69982;51.758;5.784;2024-02-21T02:03:33;102079.08;;;9.53;78.47
80627;BME280;69982;51.758;5.784;2024-02-21T02:06:06;102076.14;;;9.54;78.41
80627;BME280;69982;51.758;5.784;2024-02-21T02:09:19;102082.27;;;9.54;78.44
80627;BME280;69982;51.758;5.784;2024-02-21T02:11:50;102089.58;;;9.53;78.50
80627;BME280;69982;51.758;5.784;2024-02-21T02:14:17;102086.78;;;9.50;78.56
80627;BME280;69982;51.758;5.784;2024-02-21T02:16:46;102092.63;;;9.49;78.56
80627;BME280;69982;51.758;5.784;2024-02-21T02:19:16;102081.81;;;9.47;78.60
80627;BME280;69982;51.758;5.784;2024-02-21T02:21:46;102069.38;;;9.48;78.54
80627;BME280;69982;51.758;5.784;2024-02-21T02:24:20;102067.27;;;9.52;78.55
80627;BME280;69982;51.758;5.784;2024-02-21T02:26:51;102069.63;;;9.54;78.56
80627;BME280;69982;51.758;5.784;2024-02-21T02:29:19;102065.34;;;9.56;78.51
80627;BME280;69982;51.758;5.784;2024-02-21T02:31:46;102063.94;;;9.55;78.47
80627;BME280;69982;51.758;5.784;2024-02-21T02:34:17;102062.34;;;9.55;78.58
80627;BME280;69982;51.758;5.784;2024-02-21T02:36:45;102055.41;;;9.53;78.49
80627;BME280;69982;51.758;5.784;2024-02-21T02:39:33;102049.30;;;9.53;78.48
80627;BME280;69982;51.758;5.784;2024-02-21T02:42:03;102036.98;;;9.53;78.39
80627;BME280;69982;51.758;5.784;2024-02-21T02:44:29;102031.96;;;9.55;78.28
80627;BME280;69982;51.758;5.784;2024-02-21T02:46:56;102022.86;;;9.55;78.14
80627;BME280;69982;51.758;5.784;2024-02-21T02:49:25;102022.18;;;9.55;78.37
80627;BME280;69982;51.758;5.784;2024-02-21T02:52:32;102017.42;;;9.58;78.20
80627;BME280;69982;51.758;5.784;2024-02-21T02:55:59;102020.59;;;9.56;78.16
80627;BME280;69982;51.758;5.784;2024-02-21T02:58:29;102018.61;;;9.55;78.21
80627;BME280;69982;51.758;5.784;2024-02-21T03:07:15;102013.73;;;9.52;78.32
80627;BME280;69982;51.758;5.784;2024-02-21T03:10:02;102019.05;;;9.56;78.18
80627;BME280;69982;51.758;5.784;2024-02-21T03:12:29;102019.58;;;9.58;78.13
80627;BME280;69982;51.758;5.784;2024-02-21T03:14:57;102006.07;;;9.57;78.04
80627;BME280;69982;51.758;5.784;2024-02-21T03:17:25;102000.46;;;9.55;77.95
80627;BME280;69982;51.758;5.784;2024-02-21T03:19:55;102003.28;;;9.52;77.99
80627;BME280;69982;51.758;5.784;2024-02-21T06:01:40;101847.52;;;9.49;77.22
80627;BME280;69982;51.758;5.784;2024-02-21T06:04:10;101842.67;;;9.49;77.20
80627;BME280;69982;51.758;5.784;2024-02-21T06:25:32;101828.27;;;9.40;77.59
80627;BME280;69982;51.758;5.784;2024-02-21T06:27:58;101830.89;;;9.39;77.52
80627;BME280;69982;51.758;5.784;2024-02-21T06:30:25;101825.75;;;9.38;77.61
80627;BME280;69982;51.758;5.784;2024-02-21T06:32:53;101828.96;;;9.36;77.55
80627;BME280;69982;51.758;5.784;2024-02-21T06:35:23;101824.27;;;9.38;77.60
80627;BME280;69982;51.758;5.784;2024-02-21T06:37:54;101821.55;;;9.43;77.93
80627;BME280;69982;51.758;5.784;2024-02-21T06:40:21;101824.83;;;9.48;77.49
80627;BME280;69982;51.758;5.784;2024-02-21T06:42:55;101823.72;;;9.49;77.29
80627;BME280;69982;51.758;5.784;2024-02-21T06:45:24;101827.51;;;9.47;77.34
80627;BME280;69982;51.758;5.784;2024-02-21T06:47:50;101829.41;;;9.44;77.21
80627;BME280;69982;51.758;5.784;2024-02-21T06:50:40;101832.36;;;9.37;77.23
80627;BME280;69982;51.758;5.784;2024-02-21T06:53:10;101833.88;;;9.32;77.39
80627;BME280;69982;51.758;5.784;2024-02-21T06:55:55;101826.67;;;9.30;77.47
80627;BME280;69982;51.758;5.784;2024-02-21T06:58:23;101826.30;;;9.28;77.55
80627;BME280;69982;51.758;5.784;2024-02-21T07:01:20;101824.78;;;9.28;77.55
80627;BME280;69982;51.758;5.784;2024-02-21T07:03:57;101828.69;;;9.27;77.65
80627;BME280;69982;51.758;5.784;2024-02-21T07:06:24;101825.83;;;9.27;77.74
80627;BME280;69982;51.758;5.784;2024-02-21T07:08:55;101822.95;;;9.27;77.85
80627;BME280;69982;51.758;5.784;2024-02-21T07:11:22;101824.02;;;9.25;77.75
80627;BME280;69982;51.758;5.784;2024-02-21T07:13:59;101819.43;;;9.22;77.88
80627;BME280;69982;51.758;5.784;2024-02-21T07:16:46;101819.59;;;9.20;77.83
80627;BME280;69982;51.758;5.784;2024-02-21T07:19:15;101818.28;;;9.20;77.88
80627;BME280;69982;51.758;5.784;2024-02-21T07:21:44;101815.64;;;9.21;77.92
80627;BME280;69982;51.758;5.784;2024-02-21T07:24:12;101815.36;;;9.23;77.93
80627;BME280;69982;51.758;5.784;2024-02-21T07:26:45;101811.00;;;9.23;77.82
80627;BME280;69982;51.758;5.784;2024-02-21T07:29:15;101804.54;;;9.20;77.91
80627;BME280;69982;51.758;5.784;2024-02-21T07:31:58;101801.19;;;9.18;78.02
80627;BME280;69982;51.758;5.784;2024-02-21T07:34:29;101798.63;;;9.14;78.02
80627;BME280;69982;51.758;5.784;2024-02-21T07:37:15;101800.70;;;9.13;78.01
80627;BME280;69982;51.758;5.784;2024-02-21T07:39:50;101794.69;;;9.13;78.12
80627;BME280;69982;51.758;5.784;2024-02-21T07:42:17;101792.33;;;9.16;78.07
80627;BME280;69982;51.758;5.784;2024-02-21T07:44:52;101785.12;;;9.15;78.17
80627;BME280;69982;51.758;5.784;2024-02-21T07:47:18;101786.79;;;9.15;78.09
80627;BME280;69982;51.758;5.784;2024-02-21T07:50:08;101777.52;;;9.13;78.04
80627;BME280;69982;51.758;5.784;2024-02-21T07:52:36;101769.73;;;9.12;78.16
80627;BME280;69982;51.758;5.784;2024-02-21T07:55:11;101759.69;;;9.13;78.17
80627;BME280;69982;51.758;5.784;2024-02-21T07:57:42;101757.79;;;9.14;78.13
80627;BME280;69982;51.758;5.784;2024-02-21T08:00:14;101754.65;;;9.15;78.16
80627;BME280;69982;51.758;5.784;2024-02-21T08:02:46;101746.69;;;9.15;78.31
80627;BME280;69982;51.758;5.784;2024-02-21T08:05:36;101739.85;;;9.13;78.22
80627;BME280;69982;51.758;5.784;2024-02-21T08:08:26;101734.31;;;9.10;78.35
80627;BME280;69982;51.758;5.784;2024-02-21T08:10:58;101732.67;;;9.07;78.33
80627;BME280;69982;51.758;5.784;2024-02-21T08:13:32;101730.27;;;9.08;78.49
80627;BME280;69982;51.758;5.784;2024-02-21T08:15:58;101728.66;;;9.13;78.48
80627;BME280;69982;51.758;5.784;2024-02-21T08:18:43;101728.67;;;9.16;78.29
80627;BME280;69982;51.758;5.784;2024-02-21T08:21:18;101730.48;;;9.18;78.23
80627;BME280;69982;51.758;5.784;2024-02-21T08:23:45;101728.77;;;9.19;78.24
80627;BME280;69982;51.758;5.784;2024-02-21T08:26:23;101720.38;;;9.18;78.10
80627;BME280;69982;51.758;5.784;2024-02-21T08:29:02;101726.57;;;9.18;78.16
80627;BME280;69982;51.758;5.784;2024-02-21T08:31:31;101721.47;;;9.20;78.14
80627;BME280;69982;51.758;5.784;2024-02-21T08:34:19;101711.13;;;9.23;78.14
80627;BME280;69982;51.758;5.784;2024-02-21T08:37:06;101711.00;;;9.24;78.08
80627;BME280;69982;51.758;5.784;2024-02-21T08:39:38;101709.48;;;9.25;77.99
80627;BME280;69982;51.758;5.784;2024-02-21T08:42:06;101711.67;;;9.24;78.09
80627;BME280;69982;51.758;5.784;2024-02-21T08:44:43;101705.41;;;9.24;77.94
80627;BME280;69982;51.758;5.784;2024-02-21T08:47:13;101701.49;;;9.23;77.85
80627;BME280;69982;51.758;5.784;2024-02-21T08:50:08;101693.73;;;9.25;78.01
80627;BME280;69982;51.758;5.784;2024-02-21T08:52:43;101694.58;;;9.28;77.88
80627;BME280;69982;51.758;5.784;2024-02-21T08:55:11;101688.71;;;9.30;78.02
80627;BME280;69982;51.758;5.784;2024-02-21T08:58:04;101680.27;;;9.32;77.97
80627;BME280;69982;51.758;5.784;2024-02-21T09:00:37;101678.95;;;9.31;77.84
80627;BME280;69982;51.758;5.784;2024-02-21T09:03:07;101674.59;;;9.29;77.74
80627;BME280;69982;51.758;5.784;2024-02-21T09:05:59;101668.08;;;9.29;77.60
80627;BME280;69982;51.758;5.784;2024-02-21T09:09:02;101654.85;;;9.31;77.76
80627;BME280;69982;51.758;5.784;2024-02-21T09:11:35;101649.64;;;9.35;77.62
80627;BME280;69982;51.758;5.784;2024-02-21T09:14:02;101643.00;;;9.37;77.68
80627;BME280;69982;51.758;5.784;2024-02-21T09:16:39;101645.09;;;9.38;77.66
80627;BME280;69982;51.758;5.784;2024-02-21T09:19:08;101646.83;;;9.38;77.55
80627;BME280;69982;51.758;5.784;2024-02-21T09:21:42;101653.34;;;9.38;77.35
80627;BME280;69982;51.758;5.784;2024-02-21T09:24:23;101643.77;;;9.40;77.44
80627;BME280;69982;51.758;5.784;2024-02-21T09:27:10;101645.61;;;9.44;77.36
80627;BME280;69982;51.758;5.784;2024-02-21T09:29:43;101645.27;;;9.47;77.37
80627;BME280;69982;51.758;5.784;2024-02-21T09:32:32;101647.40;;;9.50;77.52
80627;BME280;69982;51.758;5.784;2024-02-21T09:35:04;101646.29;;;9.52;77.36
80627;BME280;69982;51.758;5.784;2024-02-21T09:37:45;101639.87;;;9.51;77.43
80627;BME280;69982;51.758;5.784;2024-02-21T09:40:15;101631.48;;;9.54;77.54
80627;BME280;69982;51.758;5.784;2024-02-21T09:42:43;101635.53;;;9.57;77.42
80627;BME280;69982;51.758;5.784;2024-02-21T09:45:23;101630.34;;;9.60;77.22
80627;BME280;69982;51.758;5.784;2024-02-21T09:51:01;101624.98;;;9.59;77.48
80627;BME280;69982;51.758;5.784;2024-02-21T09:53:33;101615.91;;;9.58;77.43
80627;BME280;69982;51.758;5.784;2024-02-21T09:56:07;101599.01;;;9.59;77.52
80627;BME280;69982;51.758;5.784;2024-02-21T09:58:34;101603.86;;;9.59;77.55
80627;BME280;69982;51.758;5.784;2024-02-21T10:01:20;101598.70;;;9.58;78.12
80627;BME280;69982;51.758;5.784;2024-02-21T10:03:51;101592.23;;;9.56;78.37
80627;BME280;69982;51.758;5.784;2024-02-21T10:06:19;101587.77;;;9.54;78.70
80627;BME280;69982;51.758;5.784;2024-02-21T10:08:59;101582.68;;;9.52;78.93
80627;BME280;69982;51.758;5.784;2024-02-21T10:11:43;101576.26;;;9.51;79.19
80627;BME280;69982;51.758;5.784;2024-02-21T10:14:09;101568.73;;;9.50;79.54
80627;BME280;69982;51.758;5.784;2024-02-21T10:17:16;101557.86;;;9.51;79.66
80627;BME280;69982;51.758;5.784;2024-02-21T10:19:45;101552.20;;;9.49;79.80
80627;BME280;69982;51.758;5.784;2024-02-21T10:22:20;101543.66;;;9.46;79.84
80627;BME280;69982;51.758;5.784;2024-02-21T10:25:09;101538.81;;;9.44;80.13
80627;BME280;69982;51.758;5.784;2024-02-21T10:27:41;101533.27;;;9.43;80.23
80627;BME280;69982;51.758;5.784;2024-02-21T10:30:13;101527.63;;;9.45;80.34
80627;BME280;69982;51.758;5.784;2024-02-21T10:33:04;101519.41;;;9.48;80.25
80627;BME280;69982;51.758;5.784;2024-02-21T10:35:36;101511.56;;;9.49;80.15
80627;BME280;69982;51.758;5.784;2024-02-21T10:38:04;101502.98;;;9.50;79.99
80627;BME280;69982;51.758;5.784;2024-02-21T10:40:35;101501.77;;;9.49;80.02
80627;BME280;69982;51.758;5.784;2024-02-21T10:43:09;101499.46;;;9.49;80.07
80627;BME280;69982;51.758;5.784;2024-02-21T10:45:57;101497.75;;;9.50;79.89
80627;BME280;69982;51.758;5.784;2024-02-21T10:48:33;101489.11;;;9.51;79.77
80627;BME280;69982;51.758;5.784;2024-02-21T10:51:23;101476.86;;;9.55;79.74
80627;BME280;69982;51.758;5.784;2024-02-21T10:54:16;101459.98;;;9.57;79.18
80627;BME280;69982;51.758;5.784;2024-02-21T10:57:10;101453.52;;;9.57;79.03
80627;BME280;69982;51.758;5.784;2024-02-21T10:59:37;101448.01;;;9.58;78.86
80627;BME280;69982;51.758;5.784;2024-02-21T11:02:25;101437.58;;;9.61;78.53
80627;BME280;69982;51.758;5.784;2024-02-21T11:05:06;101413.01;;;9.65;78.54
80627;BME280;69982;51.758;5.784;2024-02-21T11:07:37;101400.50;;;9.67;78.33
80627;BME280;69982;51.758;5.784;2024-02-21T11:10:40;101393.02;;;9.68;78.31
80627;BME280;69982;51.758;5.784;2024-02-21T11:13:13;101388.24;;;9.68;77.92
80627;BME280;69982;51.758;5.784;2024-02-21T11:15:47;101381.88;;;9.70;77.79
80627;BME280;69982;51.758;5.784;2024-02-21T11:18:23;101389.26;;;9.73;77.66
80627;BME280;69982;51.758;5.784;2024-02-21T11:21:15;101392.67;;;9.77;77.43
80627;BME280;69982;51.758;5.784;2024-02-21T11:24:26;101392.90;;;9.79;77.04
80627;BME280;69982;51.758;5.784;2024-02-21T11:27:11;101387.10;;;9.79;76.84
80627;BME280;69982;51.758;5.784;2024-02-21T11:29:49;101392.45;;;9.78;76.68
80627;BME280;69982;51.758;5.784;2024-02-21T11:32:39;101388.73;;;9.81;76.80
80627;BME280;69982;51.758;5.784;2024-02-21T11:35:07;101378.83;;;9.86;76.23
80627;BME280;69982;51.758;5.784;2024-02-21T11:37:43;101376.11;;;9.87;76.14
80627;BME280;69982;51.758;5.784;2024-02-21T11:40:16;101364.91;;;9.89;76.33
80627;BME280;69982;51.758;5.784;2024-02-21T11:42:42;101367.85;;;9.91;76.24
80627;BME280;69982;51.758;5.784;2024-02-21T11:45:18;101355.70;;;9.91;76.22
80627;BME280;69982;51.758;5.784;2024-02-21T11:47:48;101347.54;;;9.91;75.76
80627;BME280;69982;51.758;5.784;2024-02-21T11:50:16;101346.67;;;9.93;75.67
80627;BME280;69982;51.758;5.784;2024-02-21T11:52:49;101356.45;;;9.96;75.70
80627;BME280;69982;51.758;5.784;2024-02-21T11:55:19;101345.55;;;9.99;75.44
80627;BME280;69982;51.758;5.784;2024-02-21T11:58:15;101343.42;;;10.00;75.21
80627;BME280;69982;51.758;5.784;2024-02-21T12:01:13;101328.58;;;10.00;75.22
80627;BME280;69982;51.758;5.784;2024-02-21T12:03:40;101317.52;;;10.00;75.29
80627;BME280;69982;51.758;5.784;2024-02-21T12:06:16;101316.88;;;10.01;75.28
80627;BME280;69982;51.758;5.784;2024-02-21T12:08:50;101310.60;;;10.02;74.92
80627;BME280;69982;51.758;5.784;2024-02-21T12:11:23;101300.85;;;10.06;75.12
80627;BME280;69982;51.758;5.784;2024-02-21T12:14:08;101291.37;;;10.12;74.87
80627;BME280;69982;51.758;5.784;2024-02-21T12:16:39;101278.94;;;10.17;74.89
80627;BME280;69982;51.758;5.784;2024-02-21T12:19:25;101254.46;;;10.21;74.70
80627;BME280;69982;51.758;5.784;2024-02-21T12:21:54;101257.86;;;10.25;74.45
80627;BME280;69982;51.758;5.784;2024-02-21T12:24:49;101240.39;;;10.28;74.28
80627;BME280;69982;51.758;5.784;2024-02-21T12:27:32;101220.89;;;10.33;74.40
80627;BME280;69982;51.758;5.784;2024-02-21T12:30:03;101223.52;;;10.41;74.52
80627;BME280;69982;51.758;5.784;2024-02-21T12:32:40;101223.41;;;10.49;74.64
80627;BME280;69982;51.758;5.784;2024-02-21T12:35:11;101192.52;;;10.55;73.83
80627;BME280;69982;51.758;5.784;2024-02-21T12:37:44;101198.16;;;10.60;73.84
80627;BME280;69982;51.758;5.784;2024-02-21T12:40:15;101180.73;;;10.64;73.60
80627;BME280;69982;51.758;5.784;2024-02-21T12:42:46;101185.30;;;10.65;73.09
80627;BME280;69982;51.758;5.784;2024-02-21T12:45:17;101181.89;;;10.67;72.86
80627;BME280;69982;51.758;5.784;2024-02-21T12:47:55;101164.80;;;10.71;72.85
80627;BME280;69982;51.758;5.784;2024-02-21T12:50:24;101153.27;;;10.78;73.22
80627;BME280;69982;51.758;5.784;2024-02-21T12:52:50;101147.58;;;10.85;73.43
80627;BME280;69982;51.758;5.784;2024-02-21T12:55:38;101142.41;;;10.91;73.18
80627;BME280;69982;51.758;5.784;2024-02-21T12:58:06;101119.52;;;10.95;72.50
80627;BME280;69982;51.758;5.784;2024-02-21T13:00:52;101112.17;;;10.98;72.57
80627;BME280;69982;51.758;5.784;2024-02-21T13:03:27;101105.45;;;11.00;72.54
80627;BME280;69982;51.758;5.784;2024-02-21T13:06:10;101094.43;;;11.05;72.31
80627;BME280;69982;51.758;5.784;2024-02-21T13:08:39;101089.14;;;11.09;72.22
80627;BME280;69982;51.758;5.784;2024-02-21T13:11:07;101083.20;;;11.12;72.19
80627;BME280;69982;51.758;5.784;2024-02-21T13:13:42;101067.73;;;11.14;71.88
80627;BME280;69982;51.758;5.784;2024-02-21T13:16:28;101056.33;;;11.14;71.28
80627;BME280;69982;51.758;5.784;2024-02-21T13:18:59;101055.27;;;11.12;71.17
80627;BME280;69982;51.758;5.784;2024-02-21T13:21:25;101060.89;;;11.10;71.28
80627;BME280;69982;51.758;5.784;2024-02-21T13:24:01;101056.78;;;11.08;71.22
80627;BME280;69982;51.758;5.784;2024-02-21T13:26:31;101043.67;;;11.09;71.31
80627;BME280;69982;51.758;5.784;2024-02-21T13:29:18;101037.52;;;11.10;71.25
80627;BME280;69982;51.758;5.784;2024-02-21T13:31:49;101040.99;;;11.12;71.45
80627;BME280;69982;51.758;5.784;2024-02-21T13:34:25;101032.70;;;11.11;71.03
80627;BME280;69982;51.758;5.784;2024-02-21T13:36:58;101034.33;;;11.10;71.44
80627;BME280;69982;51.758;5.784;2024-02-21T13:39:26;101030.15;;;11.10;71.55
80627;BME280;69982;51.758;5.784;2024-02-21T13:42:08;101021.02;;;11.09;71.40
80627;BME280;69982;51.758;5.784;2024-02-21T13:44:39;101016.42;;;11.10;70.93
80627;BME280;69982;51.758;5.784;2024-02-21T13:47:24;101012.52;;;11.12;70.54
80627;BME280;69982;51.758;5.784;2024-02-21T13:49:53;100997.95;;;11.13;70.24
80627;BME280;69982;51.758;5.784;2024-02-21T13:52:43;101000.95;;;11.12;69.44
80627;BME280;69982;51.758;5.784;2024-02-21T13:55:11;100999.88;;;11.10;69.60
80627;BME280;69982;51.758;5.784;2024-02-21T13:57:38;101006.33;;;11.07;69.05
80627;BME280;69982;51.758;5.784;2024-02-21T14:00:09;100987.50;;;11.03;69.24
80627;BME280;69982;51.758;5.784;2024-02-21T14:02:56;100967.59;;;11.00;69.08
80627;BME280;69982;51.758;5.784;2024-02-21T14:05:28;100968.52;;;11.00;69.02
80627;BME280;69982;51.758;5.784;2024-02-21T14:08:38;100961.65;;;11.00;69.26
80627;BME280;69982;51.758;5.784;2024-02-21T14:11:24;100945.61;;;10.99;68.85
80627;BME280;69982;51.758;5.784;2024-02-21T14:13:55;100931.37;;;10.95;68.58
80627;BME280;69982;51.758;5.784;2024-02-21T14:16:29;100934.52;;;10.91;68.67
80627;BME280;69982;51.758;5.784;2024-02-21T14:19:05;100927.79;;;10.86;68.95
80627;BME280;69982;51.758;5.784;2024-02-21T14:21:40;100916.91;;;10.81;68.96
80627;BME280;69982;51.758;5.784;2024-02-21T14:24:08;100915.92;;;10.81;69.42
80627;BME280;69982;51.758;5.784;2024-02-21T14:26:39;100907.71;;;10.83;69.56
80627;BME280;69982;51.758;5.784;2024-02-21T14:29:07;100904.08;;;10.83;69.37
80627;BME280;69982;51.758;5.784;2024-02-21T14:31:40;100900.74;;;10.82;69.55
80627;BME280;69982;51.758;5.784;2024-02-21T14:34:16;100885.98;;;10.81;69.24
80627;BME280;69982;51.758;5.784;2024-02-21T14:36:43;100888.27;;;10.78;69.39
80627;BME280;69982;51.758;5.784;2024-02-21T14:39:14;100870.20;;;10.75;69.70
80627;BME280;69982;51.758;5.784;2024-02-21T14:41:50;100868.44;;;10.73;69.78
80627;BME280;69982;51.758;5.784;2024-02-21T14:44:51;100863.30;;;10.73;70.01
80627;BME280;69982;51.758;5.784;2024-02-21T14:47:18;100841.18;;;10.75;69.96
80627;BME280;69982;51.758;5.784;2024-02-21T14:50:02;100831.77;;;10.75;69.38
80627;BME280;69982;51.758;5.784;2024-02-21T14:52:31;100832.29;;;10.74;69.58
80627;BME280;69982;51.758;5.784;2024-02-21T14:54:58;100826.88;;;10.72;69.72
80627;BME280;69982;51.758;5.784;2024-02-21T14:58:01;100818.80;;;10.70;69.55
80627;BME280;69982;51.758;5.784;2024-02-21T15:00:40;100812.44;;;10.65;69.74
80627;BME280;69982;51.758;5.784;2024-02-21T15:03:29;100813.80;;;10.61;70.15
80627;BME280;69982;51.758;5.784;2024-02-21T15:06:15;100802.45;;;10.59;70.30
80627;BME280;69982;51.758;5.784;2024-02-21T15:09:02;100803.61;;;10.60;70.51
80627;BME280;69982;51.758;5.784;2024-02-21T15:11:32;100796.95;;;10.59;70.72
80627;BME280;69982;51.758;5.784;2024-02-21T15:14:00;100779.48;;;10.57;70.91
80627;BME280;69982;51.758;5.784;2024-02-21T15:16:29;100767.02;;;10.53;71.36
80627;BME280;69982;51.758;5.784;2024-02-21T15:19:04;100757.58;;;10.49;71.75
80627;BME280;69982;51.758;5.784;2024-02-21T15:21:31;100754.96;;;10.43;72.26
80627;BME280;69982;51.758;5.784;2024-02-21T15:24:14;100757.90;;;10.41;72.60
80627;BME280;69982;51.758;5.784;2024-02-21T15:26:45;100753.85;;;10.40;72.78
80627;BME280;69982;51.758;5.784;2024-02-21T15:29:12;100740.65;;;10.40;72.82
80627;BME280;69982;51.758;5.784;2024-02-21T15:31:40;100737.40;;;10.38;72.96
80627;BME280;69982;51.758;5.784;2024-02-21T15:34:41;100728.98;;;10.34;73.38
80627;BME280;69982;51.758;5.784;2024-02-21T15:37:26;100729.41;;;10.28;73.79
80627;BME280;69982;51.758;5.784;2024-02-21T15:40:07;100721.08;;;10.20;74.26
80627;BME280;69982;51.758;5.784;2024-02-21T15:43:14;100712.09;;;10.15;74.53
80627;BME280;69982;51.758;5.784;2024-02-21T15:46:03;100708.95;;;10.10;74.95
80627;BME280;69982;51.758;5.784;2024-02-21T15:48:57;100694.77;;;10.08;75.35
80627;BME280;69982;51.758;5.784;2024-02-21T15:51:43;100691.92;;;10.04;75.66
80627;BME280;69982;51.758;5.784;2024-02-21T15:54:12;100683.80;;;10.00;76.05
80627;BME280;69982;51.758;5.784;2024-02-21T15:57:07;100669.96;;;9.95;76.25
80627;BME280;69982;51.758;5.784;2024-02-21T15:59:48;100664.59;;;9.88;76.75
80627;BME280;69982;51.758;5.784;2024-02-21T16:02:22;100659.88;;;9.85;77.08
80627;BME280;69982;51.758;5.784;2024-02-21T16:04:52;100660.71;;;9.83;77.31
80627;BME280;69982;51.758;5.784;2024-02-21T16:07:22;100651.39;;;9.81;77.60
80627;BME280;69982;51.758;5.784;2024-02-21T16:09:55;100639.92;;;9.77;77.89
80627;BME280;69982;51.758;5.784;2024-02-21T16:12:47;100636.52;;;9.73;78.04
80627;BME280;69982;51.758;5.784;2024-02-21T16:15:21;100630.30;;;9.68;78.25
80627;BME280;69982;51.758;5.784;2024-02-21T16:17:58;100618.77;;;9.65;78.29
80627;BME280;69982;51.758;5.784;2024-02-21T16:20:51;100605.85;;;9.61;78.69
80627;BME280;69982;51.758;5.784;2024-02-21T16:23:21;100597.61;;;9.55;78.66
80627;BME280;69982;51.758;5.784;2024-02-21T16:26:06;100585.66;;;9.49;78.81
80627;BME280;69982;51.758;5.784;2024-02-21T16:28:45;100582.90;;;9.44;79.05
80627;BME280;69982;51.758;5.784;2024-02-21T16:31:13;100572.53;;;9.41;79.36
80627;BME280;69982;51.758;5.784;2024-02-21T16:33:52;100564.77;;;9.41;79.61
80627;BME280;69982;51.758;5.784;2024-02-21T16:36:26;100558.27;;;9.40;79.60
80627;BME280;69982;51.758;5.784;2024-02-21T16:38:58;100556.96;;;9.37;79.84
80627;BME280;69982;51.758;5.784;2024-02-21T16:41:39;100557.88;;;9.33;80.41
80627;BME280;69982;51.758;5.784;2024-02-21T16:44:58;100545.33;;;9.29;80.80
80627;BME280;69982;51.758;5.784;2024-02-21T16:47:31;100536.83;;;9.28;80.92
80627;BME280;69982;51.758;5.784;2024-02-21T16:50:04;100537.27;;;9.25;80.97
80627;BME280;69982;51.758;5.784;2024-02-21T16:52:31;100526.38;;;9.22;80.98